sensor_id;sensor_type;location;lat;lon;timestamp;P1;durP1;ratioP1;P2;durP2;ratioP2
19396;SDS011;9834;48.076;11.878;2023-02-28T00:00:13;4.33;;;2.67;;
19396;SDS011;9834;48.076;11.878;2023-02-28T00:02:42;2.77;;;2.40;;
19396;SDS011;9834;48.076;11.878;2023-02-28T00:05:11;3.00;;;2.13;;
19396;SDS011;9834;48.076;11.878;2023-02-28T00:07:39;3.60;;;2.60;;
19396;SDS011;9834;48.076;11.878;2023-02-28T00:10:10;3.50;;;2.53;;
19396;SDS011;9834;48.076;11.878;2023-02-28T00:12:39;2.97;;;2.17;;
19396;SDS011;9834;48.076;11.878;2023-02-28T00:15:08;4.93;;;2.97;;
19396;SDS011;9834;48.076;11.878;2023-02-28T00:17:37;3.17;;;2.10;;
19396;SDS011;9834;48.076;11.878;2023-02-28T00:20:05;4.23;;;2.50;;
19396;SDS011;9834;48.076;11.878;2023-02-28T00:22:37;3.23;;;2.53;;
19396;SDS011;9834;48.076;11.878;2023-02-28T00:25:06;3.07;;;2.73;;
19396;SDS011;9834;48.076;11.878;2023-02-28T00:27:37;6.67;;;2.83;;
19396;SDS011;9834;48.076;11.878;2023-02-28T00:30:06;4.00;;;2.80;;
19396;SDS011;9834;48.076;11.878;2023-02-28T00:32:37;4.07;;;2.83;;
19396;SDS011;9834;48.076;11.878;2023-02-28T00:35:05;5.60;;;2.63;;
19396;SDS011;9834;48.076;11.878;2023-02-28T00:37:34;4.00;;;3.00;;
19396;SDS011;9834;48.076;11.878;2023-02-28T00:40:02;4.13;;;2.53;;
19396;SDS011;9834;48.076;11.878;2023-02-28T00:42:33;4.00;;;2.87;;
19396;SDS011;9834;48.076;11.878;2023-02-28T00:45:00;4.20;;;3.23;;
19396;SDS011;9834;48.076;11.878;2023-02-28T00:47:29;2.60;;;2.40;;
19396;SDS011;9834;48.076;11.878;2023-02-28T00:49:57;4.80;;;2.67;;
19396;SDS011;9834;48.076;11.878;2023-02-28T00:52:25;3.50;;;2.53;;
19396;SDS011;9834;48.076;11.878;2023-02-28T00:54:52;6.20;;;3.17;;
19396;SDS011;9834;48.076;11.878;2023-02-28T00:57:20;3.50;;;2.63;;
19396;SDS011;9834;48.076;11.878;2023-02-28T00:59:49;3.93;;;2.67;;
19396;SDS011;9834;48.076;11.878;2023-02-28T01:02:16;3.30;;;2.73;;
19396;SDS011;9834;48.076;11.878;2023-02-28T01:04:45;5.73;;;3.00;;
19396;SDS011;9834;48.076;11.878;2023-02-28T01:07:13;7.93;;;3.27;;
19396;SDS011;9834;48.076;11.878;2023-02-28T01:09:41;5.07;;;3.20;;
19396;SDS011;9834;48.076;11.878;2023-02-28T01:12:09;6.00;;;3.30;;
19396;SDS011;9834;48.076;11.878;2023-02-28T01:14:36;5.37;;;3.13;;
19396;SDS011;9834;48.076;11.878;2023-02-28T01:17:05;5.03;;;2.83;;
19396;SDS011;9834;48.076;11.878;2023-02-28T01:19:33;4.37;;;2.93;;
19396;SDS011;9834;48.076;11.878;2023-02-28T01:22:01;4.37;;;3.30;;
19396;SDS011;9834;48.076;11.878;2023-02-28T01:24:29;3.50;;;2.27;;
19396;SDS011;9834;48.076;11.878;2023-02-28T01:26:57;2.90;;;2.63;;
19396;SDS011;9834;48.076;11.878;2023-02-28T01:29:24;3.83;;;3.07;;
19396;SDS011;9834;48.076;11.878;2023-02-28T01:31:52;2.60;;;2.30;;
19396;SDS011;9834;48.076;11.878;2023-02-28T01:34:21;3.50;;;2.87;;
19396;SDS011;9834;48.076;11.878;2023-02-28T01:36:48;3.70;;;2.73;;
19396;SDS011;9834;48.076;11.878;2023-02-28T01:39:16;4.37;;;2.50;;
19396;SDS011;9834;48.076;11.878;2023-02-28T01:41:43;5.23;;;3.27;;
19396;SDS011;9834;48.076;11.878;2023-02-28T01:47:15;3.57;;;2.77;;
19396;SDS011;9834;48.076;11.878;2023-02-28T01:49:44;2.97;;;2.57;;
19396;SDS011;9834;48.076;11.878;2023-02-28T01:52:12;4.67;;;3.07;;
19396;SDS011;9834;48.076;11.878;2023-02-28T01:54:47;4.23;;;3.33;;
19396;SDS011;9834;48.076;11.878;2023-02-28T01:57:20;4.80;;;3.33;;
19396;SDS011;9834;48.076;11.878;2023-02-28T01:59:51;5.67;;;3.30;;
19396;SDS011;9834;48.076;11.878;2023-02-28T02:02:21;6.70;;;3.33;;
19396;SDS011;9834;48.076;11.878;2023-02-28T02:04:53;6.17;;;2.80;;
19396;SDS011;9834;48.076;11.878;2023-02-28T02:07:23;5.57;;;3.37;;
19396;SDS011;9834;48.076;11.878;2023-02-28T02:09:58;4.27;;;3.10;;
19396;SDS011;9834;48.076;11.878;2023-02-28T02:12:31;3.43;;;3.13;;
19396;SDS011;9834;48.076;11.878;2023-02-28T02:15:09;3.37;;;3.07;;
19396;SDS011;9834;48.076;11.878;2023-02-28T02:17:43;4.93;;;3.40;;
19396;SDS011;9834;48.076;11.878;2023-02-28T02:23:23;5.07;;;3.33;;
19396;SDS011;9834;48.076;11.878;2023-02-28T02:29:12;5.70;;;4.03;;
19396;SDS011;9834;48.076;11.878;2023-02-28T02:32:00;6.13;;;3.90;;
19396;SDS011;9834;48.076;11.878;2023-02-28T02:34:59;5.03;;;3.10;;
19396;SDS011;9834;48.076;11.878;2023-02-28T02:37:36;6.20;;;3.67;;
19396;SDS011;9834;48.076;11.878;2023-02-28T02:40:09;4.33;;;3.43;;
19396;SDS011;9834;48.076;11.878;2023-02-28T02:42:41;6.27;;;3.83;;
19396;SDS011;9834;48.076;11.878;2023-02-28T02:45:15;6.93;;;4.03;;
19396;SDS011;9834;48.076;11.878;2023-02-28T02:47:46;5.87;;;3.77;;
19396;SDS011;9834;48.076;11.878;2023-02-28T02:50:17;6.20;;;3.77;;
19396;SDS011;9834;48.076;11.878;2023-02-28T02:52:48;6.33;;;3.83;;
19396;SDS011;9834;48.076;11.878;2023-02-28T02:55:18;7.40;;;4.33;;
19396;SDS011;9834;48.076;11.878;2023-02-28T02:57:49;7.80;;;4.10;;
19396;SDS011;9834;48.076;11.878;2023-02-28T03:00:20;9.33;;;4.80;;
19396;SDS011;9834;48.076;11.878;2023-02-28T03:02:51;6.57;;;4.07;;
19396;SDS011;9834;48.076;11.878;2023-02-28T03:05:21;5.27;;;4.13;;
19396;SDS011;9834;48.076;11.878;2023-02-28T03:07:52;4.87;;;4.00;;
19396;SDS011;9834;48.076;11.878;2023-02-28T03:10:31;7.17;;;4.37;;
19396;SDS011;9834;48.076;11.878;2023-02-28T03:13:04;6.47;;;4.30;;
19396;SDS011;9834;48.076;11.878;2023-02-28T03:16:01;7.70;;;4.60;;
19396;SDS011;9834;48.076;11.878;2023-02-28T03:18:51;7.80;;;4.30;;
19396;SDS011;9834;48.076;11.878;2023-02-28T03:21:32;8.33;;;4.70;;
19396;SDS011;9834;48.076;11.878;2023-02-28T03:24:05;6.47;;;4.30;;
19396;SDS011;9834;48.076;11.878;2023-02-28T03:26:36;8.10;;;4.73;;
19396;SDS011;9834;48.076;11.878;2023-02-28T03:29:11;7.73;;;4.73;;
19396;SDS011;9834;48.076;11.878;2023-02-28T03:31:48;6.83;;;5.00;;
19396;SDS011;9834;48.076;11.878;2023-02-28T03:34:21;11.20;;;5.10;;
19396;SDS011;9834;48.076;11.878;2023-02-28T03:36:55;9.37;;;5.63;;
19396;SDS011;9834;48.076;11.878;2023-02-28T03:39:28;8.83;;;5.27;;
19396;SDS011;9834;48.076;11.878;2023-02-28T03:42:04;7.47;;;4.83;;
19396;SDS011;9834;48.076;11.878;2023-02-28T03:44:36;9.87;;;5.33;;
19396;SDS011;9834;48.076;11.878;2023-02-28T03:47:08;12.47;;;6.30;;
19396;SDS011;9834;48.076;11.878;2023-02-28T03:49:39;8.23;;;5.73;;
19396;SDS011;9834;48.076;11.878;2023-02-28T03:52:12;10.30;;;6.47;;
19396;SDS011;9834;48.076;11.878;2023-02-28T03:54:41;8.47;;;5.60;;
19396;SDS011;9834;48.076;11.878;2023-02-28T03:57:12;8.67;;;5.50;;
19396;SDS011;9834;48.076;11.878;2023-02-28T03:59:46;8.13;;;6.00;;
19396;SDS011;9834;48.076;11.878;2023-02-28T04:05:03;8.10;;;5.73;;
19396;SDS011;9834;48.076;11.878;2023-02-28T04:07:33;9.07;;;5.87;;
19396;SDS011;9834;48.076;11.878;2023-02-28T04:10:00;10.07;;;6.17;;
19396;SDS011;9834;48.076;11.878;2023-02-28T04:12:28;10.73;;;6.73;;
19396;SDS011;9834;48.076;11.878;2023-02-28T04:14:55;9.37;;;5.90;;
19396;SDS011;9834;48.076;11.878;2023-02-28T04:17:23;10.17;;;6.37;;
19396;SDS011;9834;48.076;11.878;2023-02-28T04:19:50;10.97;;;6.50;;
19396;SDS011;9834;48.076;11.878;2023-02-28T04:22:19;9.03;;;5.83;;
19396;SDS011;9834;48.076;11.878;2023-02-28T04:24:48;10.53;;;6.33;;
19396;SDS011;9834;48.076;11.878;2023-02-28T04:27:15;12.13;;;6.57;;
19396;SDS011;9834;48.076;11.878;2023-02-28T04:29:43;12.07;;;7.13;;
19396;SDS011;9834;48.076;11.878;2023-02-28T04:32:10;9.03;;;6.13;;
19396;SDS011;9834;48.076;11.878;2023-02-28T04:34:38;11.07;;;6.40;;
19396;SDS011;9834;48.076;11.878;2023-02-28T04:37:06;10.97;;;7.50;;
19396;SDS011;9834;48.076;11.878;2023-02-28T04:39:34;10.27;;;7.50;;
19396;SDS011;9834;48.076;11.878;2023-02-28T04:42:04;9.53;;;7.20;;
19396;SDS011;9834;48.076;11.878;2023-02-28T04:44:31;10.60;;;7.27;;
19396;SDS011;9834;48.076;11.878;2023-02-28T04:46:58;12.83;;;7.33;;
19396;SDS011;9834;48.076;11.878;2023-02-28T04:49:26;10.43;;;6.77;;
19396;SDS011;9834;48.076;11.878;2023-02-28T04:51:54;11.97;;;7.10;;
19396;SDS011;9834;48.076;11.878;2023-02-28T04:54:21;14.60;;;7.47;;
19396;SDS011;9834;48.076;11.878;2023-02-28T04:56:48;10.40;;;7.47;;
19396;SDS011;9834;48.076;11.878;2023-02-28T04:59:16;9.20;;;6.07;;
19396;SDS011;9834;48.076;11.878;2023-02-28T05:01:45;11.70;;;7.07;;
19396;SDS011;9834;48.076;11.878;2023-02-28T05:04:13;12.67;;;7.23;;
19396;SDS011;9834;48.076;11.878;2023-02-28T05:06:40;9.00;;;5.90;;
19396;SDS011;9834;48.076;11.878;2023-02-28T05:09:08;11.10;;;6.63;;
19396;SDS011;9834;48.076;11.878;2023-02-28T05:11:36;12.43;;;7.40;;
19396;SDS011;9834;48.076;11.878;2023-02-28T05:14:06;16.47;;;8.37;;
19396;SDS011;9834;48.076;11.878;2023-02-28T05:16:38;11.03;;;7.67;;
19396;SDS011;9834;48.076;11.878;2023-02-28T05:19:06;12.00;;;7.60;;
19396;SDS011;9834;48.076;11.878;2023-02-28T05:21:34;17.77;;;9.03;;
19396;SDS011;9834;48.076;11.878;2023-02-28T05:24:03;13.97;;;8.60;;
19396;SDS011;9834;48.076;11.878;2023-02-28T05:26:34;13.40;;;8.17;;
19396;SDS011;9834;48.076;11.878;2023-02-28T05:29:02;16.20;;;8.17;;
19396;SDS011;9834;48.076;11.878;2023-02-28T05:31:30;14.43;;;8.47;;
19396;SDS011;9834;48.076;11.878;2023-02-28T05:33:59;12.83;;;8.10;;
19396;SDS011;9834;48.076;11.878;2023-02-28T05:36:27;15.53;;;8.90;;
19396;SDS011;9834;48.076;11.878;2023-02-28T05:38:54;13.47;;;7.83;;
19396;SDS011;9834;48.076;11.878;2023-02-28T05:41:21;16.27;;;8.77;;
19396;SDS011;9834;48.076;11.878;2023-02-28T05:43:49;12.53;;;8.47;;
19396;SDS011;9834;48.076;11.878;2023-02-28T05:46:16;13.87;;;8.87;;
19396;SDS011;9834;48.076;11.878;2023-02-28T05:48:45;19.30;;;9.37;;
19396;SDS011;9834;48.076;11.878;2023-02-28T05:51:18;15.27;;;9.40;;
19396;SDS011;9834;48.076;11.878;2023-02-28T05:53:45;15.27;;;9.03;;
19396;SDS011;9834;48.076;11.878;2023-02-28T05:56:14;14.60;;;9.37;;
19396;SDS011;9834;48.076;11.878;2023-02-28T05:58:41;15.97;;;9.03;;
19396;SDS011;9834;48.076;11.878;2023-02-28T06:01:25;14.70;;;9.23;;
19396;SDS011;9834;48.076;11.878;2023-02-28T06:03:58;10.00;;;8.07;;
19396;SDS011;9834;48.076;11.878;2023-02-28T06:06:27;15.90;;;10.30;;
19396;SDS011;9834;48.076;11.878;2023-02-28T06:08:55;17.40;;;9.60;;
19396;SDS011;9834;48.076;11.878;2023-02-28T06:11:23;16.07;;;9.93;;
19396;SDS011;9834;48.076;11.878;2023-02-28T06:13:53;14.07;;;8.73;;
19396;SDS011;9834;48.076;11.878;2023-02-28T06:16:21;14.70;;;9.23;;
19396;SDS011;9834;48.076;11.878;2023-02-28T06:18:49;16.13;;;10.33;;
19396;SDS011;9834;48.076;11.878;2023-02-28T06:21:17;20.07;;;8.83;;
19396;SDS011;9834;48.076;11.878;2023-02-28T06:23:46;14.43;;;9.73;;
19396;SDS011;9834;48.076;11.878;2023-02-28T06:26:14;12.70;;;9.03;;
19396;SDS011;9834;48.076;11.878;2023-02-28T06:28:41;16.33;;;10.60;;
19396;SDS011;9834;48.076;11.878;2023-02-28T06:31:09;15.73;;;9.70;;
19396;SDS011;9834;48.076;11.878;2023-02-28T06:33:38;13.30;;;9.30;;
19396;SDS011;9834;48.076;11.878;2023-02-28T06:36:07;15.87;;;10.40;;
19396;SDS011;9834;48.076;11.878;2023-02-28T06:38:36;16.17;;;9.37;;
19396;SDS011;9834;48.076;11.878;2023-02-28T06:41:05;13.53;;;8.97;;
19396;SDS011;9834;48.076;11.878;2023-02-28T06:43:34;19.67;;;9.33;;
19396;SDS011;9834;48.076;11.878;2023-02-28T06:46:04;14.70;;;9.93;;
19396;SDS011;9834;48.076;11.878;2023-02-28T06:48:33;14.47;;;9.17;;
19396;SDS011;9834;48.076;11.878;2023-02-28T06:51:01;14.60;;;9.53;;
19396;SDS011;9834;48.076;11.878;2023-02-28T06:53:30;13.67;;;8.57;;
19396;SDS011;9834;48.076;11.878;2023-02-28T06:55:57;15.10;;;9.20;;
19396;SDS011;9834;48.076;11.878;2023-02-28T06:58:26;11.33;;;8.60;;
19396;SDS011;9834;48.076;11.878;2023-02-28T07:00:54;15.33;;;9.80;;
19396;SDS011;9834;48.076;11.878;2023-02-28T07:03:21;17.33;;;8.33;;
19396;SDS011;9834;48.076;11.878;2023-02-28T07:05:49;13.80;;;9.17;;
19396;SDS011;9834;48.076;11.878;2023-02-28T07:08:16;18.90;;;10.03;;
19396;SDS011;9834;48.076;11.878;2023-02-28T07:10:44;12.10;;;9.07;;
19396;SDS011;9834;48.076;11.878;2023-02-28T07:13:11;13.20;;;8.87;;
19396;SDS011;9834;48.076;11.878;2023-02-28T07:15:40;15.27;;;8.83;;
19396;SDS011;9834;48.076;11.878;2023-02-28T07:18:07;12.87;;;9.47;;
19396;SDS011;9834;48.076;11.878;2023-02-28T07:20:35;16.23;;;8.33;;
19396;SDS011;9834;48.076;11.878;2023-02-28T07:23:02;16.47;;;9.13;;
19396;SDS011;9834;48.076;11.878;2023-02-28T07:25:29;12.90;;;8.47;;
19396;SDS011;9834;48.076;11.878;2023-02-28T07:27:57;13.47;;;8.90;;
19396;SDS011;9834;48.076;11.878;2023-02-28T07:30:25;15.40;;;8.70;;
19396;SDS011;9834;48.076;11.878;2023-02-28T07:32:54;15.17;;;9.17;;
19396;SDS011;9834;48.076;11.878;2023-02-28T07:35:22;15.27;;;8.40;;
19396;SDS011;9834;48.076;11.878;2023-02-28T07:37:50;11.97;;;8.37;;
19396;SDS011;9834;48.076;11.878;2023-02-28T07:40:18;13.23;;;8.80;;
19396;SDS011;9834;48.076;11.878;2023-02-28T07:42:45;12.27;;;8.63;;
19396;SDS011;9834;48.076;11.878;2023-02-28T07:45:13;11.97;;;8.57;;
19396;SDS011;9834;48.076;11.878;2023-02-28T07:47:41;15.33;;;8.90;;
19396;SDS011;9834;48.076;11.878;2023-02-28T07:50:11;13.93;;;9.13;;
19396;SDS011;9834;48.076;11.878;2023-02-28T07:52:41;13.43;;;8.97;;
19396;SDS011;9834;48.076;11.878;2023-02-28T07:55:09;12.17;;;8.23;;
19396;SDS011;9834;48.076;11.878;2023-02-28T07:57:36;11.67;;;8.03;;
19396;SDS011;9834;48.076;11.878;2023-02-28T08:00:05;13.90;;;9.60;;
19396;SDS011;9834;48.076;11.878;2023-02-28T08:02:34;14.33;;;9.07;;
19396;SDS011;9834;48.076;11.878;2023-02-28T08:05:02;12.73;;;9.37;;
19396;SDS011;9834;48.076;11.878;2023-02-28T08:07:31;13.10;;;9.47;;
19396;SDS011;9834;48.076;11.878;2023-02-28T08:09:59;12.00;;;8.30;;
19396;SDS011;9834;48.076;11.878;2023-02-28T08:12:27;11.60;;;7.90;;
19396;SDS011;9834;48.076;11.878;2023-02-28T08:14:54;14.13;;;8.50;;
19396;SDS011;9834;48.076;11.878;2023-02-28T08:17:22;15.03;;;9.17;;
19396;SDS011;9834;48.076;11.878;2023-02-28T08:19:49;17.90;;;8.23;;
19396;SDS011;9834;48.076;11.878;2023-02-28T08:22:17;9.37;;;7.87;;
19396;SDS011;9834;48.076;11.878;2023-02-28T08:24:46;12.27;;;8.77;;
19396;SDS011;9834;48.076;11.878;2023-02-28T08:27:14;13.13;;;8.30;;
19396;SDS011;9834;48.076;11.878;2023-02-28T08:29:42;14.17;;;8.73;;
19396;SDS011;9834;48.076;11.878;2023-02-28T08:32:10;11.83;;;8.13;;
19396;SDS011;9834;48.076;11.878;2023-02-28T08:34:38;11.43;;;8.10;;
19396;SDS011;9834;48.076;11.878;2023-02-28T08:37:06;15.87;;;7.80;;
19396;SDS011;9834;48.076;11.878;2023-02-28T08:39:33;10.63;;;7.97;;
19396;SDS011;9834;48.076;11.878;2023-02-28T08:42:02;13.13;;;8.73;;
19396;SDS011;9834;48.076;11.878;2023-02-28T08:44:30;12.23;;;8.70;;
19396;SDS011;9834;48.076;11.878;2023-02-28T08:46:57;14.23;;;8.73;;
19396;SDS011;9834;48.076;11.878;2023-02-28T08:49:24;12.50;;;7.90;;
19396;SDS011;9834;48.076;11.878;2023-02-28T08:51:52;11.50;;;7.83;;
19396;SDS011;9834;48.076;11.878;2023-02-28T08:54:20;15.10;;;8.93;;
19396;SDS011;9834;48.076;11.878;2023-02-28T08:56:48;11.37;;;8.07;;
19396;SDS011;9834;48.076;11.878;2023-02-28T08:59:17;12.57;;;8.87;;
19396;SDS011;9834;48.076;11.878;2023-02-28T09:01:44;8.90;;;7.97;;
19396;SDS011;9834;48.076;11.878;2023-02-28T09:04:11;14.07;;;8.20;;
19396;SDS011;9834;48.076;11.878;2023-02-28T09:06:40;12.83;;;8.63;;
19396;SDS011;9834;48.076;11.878;2023-02-28T09:09:08;14.13;;;9.27;;
19396;SDS011;9834;48.076;11.878;2023-02-28T09:11:35;13.97;;;8.37;;
19396;SDS011;9834;48.076;11.878;2023-02-28T09:14:03;12.57;;;8.97;;
19396;SDS011;9834;48.076;11.878;2023-02-28T09:16:32;15.13;;;9.00;;
19396;SDS011;9834;48.076;11.878;2023-02-28T09:19:00;10.13;;;7.27;;
19396;SDS011;9834;48.076;11.878;2023-02-28T09:21:27;14.73;;;8.27;;
19396;SDS011;9834;48.076;11.878;2023-02-28T09:23:55;14.87;;;9.27;;
19396;SDS011;9834;48.076;11.878;2023-02-28T09:26:23;11.63;;;8.63;;
19396;SDS011;9834;48.076;11.878;2023-02-28T09:28:52;11.60;;;8.43;;
19396;SDS011;9834;48.076;11.878;2023-02-28T09:31:21;13.23;;;9.00;;
19396;SDS011;9834;48.076;11.878;2023-02-28T09:33:52;11.03;;;8.43;;
19396;SDS011;9834;48.076;11.878;2023-02-28T09:36:20;9.77;;;7.67;;
19396;SDS011;9834;48.076;11.878;2023-02-28T09:38:48;12.57;;;8.50;;
19396;SDS011;9834;48.076;11.878;2023-02-28T09:41:19;10.47;;;8.13;;
19396;SDS011;9834;48.076;11.878;2023-02-28T09:43:49;11.73;;;8.43;;
19396;SDS011;9834;48.076;11.878;2023-02-28T09:46:24;12.90;;;7.87;;
19396;SDS011;9834;48.076;11.878;2023-02-28T09:49:00;10.67;;;8.40;;
19396;SDS011;9834;48.076;11.878;2023-02-28T09:51:34;11.27;;;8.30;;
19396;SDS011;9834;48.076;11.878;2023-02-28T09:54:12;12.73;;;8.33;;
19396;SDS011;9834;48.076;11.878;2023-02-28T09:56:44;13.67;;;8.67;;
19396;SDS011;9834;48.076;11.878;2023-02-28T09:59:20;10.43;;;7.97;;
19396;SDS011;9834;48.076;11.878;2023-02-28T10:02:04;10.07;;;7.00;;
19396;SDS011;9834;48.076;11.878;2023-02-28T10:04:43;13.77;;;7.97;;
19396;SDS011;9834;48.076;11.878;2023-02-28T10:07:21;12.43;;;7.30;;
19396;SDS011;9834;48.076;11.878;2023-02-28T10:10:04;13.90;;;9.13;;
19396;SDS011;9834;48.076;11.878;2023-02-28T10:12:44;11.37;;;8.37;;
19396;SDS011;9834;48.076;11.878;2023-02-28T10:15:13;11.53;;;8.33;;
19396;SDS011;9834;48.076;11.878;2023-02-28T10:17:42;14.93;;;8.67;;
19396;SDS011;9834;48.076;11.878;2023-02-28T10:20:14;9.57;;;7.30;;
19396;SDS011;9834;48.076;11.878;2023-02-28T10:22:49;10.63;;;7.83;;
19396;SDS011;9834;48.076;11.878;2023-02-28T10:25:20;12.73;;;8.77;;
19396;SDS011;9834;48.076;11.878;2023-02-28T10:27:49;12.03;;;7.90;;
19396;SDS011;9834;48.076;11.878;2023-02-28T10:30:19;10.53;;;7.60;;
19396;SDS011;9834;48.076;11.878;2023-02-28T10:32:47;9.93;;;8.00;;
19396;SDS011;9834;48.076;11.878;2023-02-28T10:35:20;12.07;;;7.47;;
19396;SDS011;9834;48.076;11.878;2023-02-28T10:37:49;10.67;;;7.43;;
19396;SDS011;9834;48.076;11.878;2023-02-28T10:40:31;9.60;;;7.27;;
19396;SDS011;9834;48.076;11.878;2023-02-28T10:43:02;11.10;;;7.37;;
19396;SDS011;9834;48.076;11.878;2023-02-28T10:45:31;13.57;;;8.87;;
19396;SDS011;9834;48.076;11.878;2023-02-28T10:48:02;11.13;;;7.63;;
19396;SDS011;9834;48.076;11.878;2023-02-28T10:50:36;11.03;;;7.40;;
19396;SDS011;9834;48.076;11.878;2023-02-28T10:53:14;10.60;;;7.07;;
19396;SDS011;9834;48.076;11.878;2023-02-28T10:55:56;11.40;;;7.50;;
19396;SDS011;9834;48.076;11.878;2023-02-28T10:58:25;10.23;;;7.40;;
19396;SDS011;9834;48.076;11.878;2023-02-28T11:00:54;13.20;;;8.23;;
19396;SDS011;9834;48.076;11.878;2023-02-28T11:03:23;12.50;;;7.67;;
19396;SDS011;9834;48.076;11.878;2023-02-28T11:05:57;8.77;;;6.97;;
19396;SDS011;9834;48.076;11.878;2023-02-28T11:08:25;11.87;;;7.60;;
19396;SDS011;9834;48.076;11.878;2023-02-28T11:10:56;11.27;;;7.20;;
19396;SDS011;9834;48.076;11.878;2023-02-28T11:13:26;13.23;;;8.37;;
19396;SDS011;9834;48.076;11.878;2023-02-28T11:15:57;13.13;;;8.37;;
19396;SDS011;9834;48.076;11.878;2023-02-28T11:18:27;11.63;;;8.23;;
19396;SDS011;9834;48.076;11.878;2023-02-28T11:20:59;10.67;;;7.87;;
19396;SDS011;9834;48.076;11.878;2023-02-28T11:23:29;9.03;;;7.93;;
19396;SDS011;9834;48.076;11.878;2023-02-28T11:26:01;12.37;;;8.07;;
19396;SDS011;9834;48.076;11.878;2023-02-28T11:28:30;12.43;;;8.03;;
19396;SDS011;9834;48.076;11.878;2023-02-28T11:31:01;8.87;;;6.97;;
19396;SDS011;9834;48.076;11.878;2023-02-28T11:33:41;12.37;;;6.87;;
19396;SDS011;9834;48.076;11.878;2023-02-28T11:36:13;9.70;;;7.07;;
19396;SDS011;9834;48.076;11.878;2023-02-28T11:38:42;10.07;;;7.27;;
19396;SDS011;9834;48.076;11.878;2023-02-28T11:41:22;9.27;;;6.13;;
19396;SDS011;9834;48.076;11.878;2023-02-28T11:44:15;10.23;;;7.20;;
19396;SDS011;9834;48.076;11.878;2023-02-28T11:46:51;8.03;;;6.60;;
19396;SDS011;9834;48.076;11.878;2023-02-28T11:49:28;11.87;;;7.30;;
19396;SDS011;9834;48.076;11.878;2023-02-28T11:52:04;8.30;;;6.83;;
19396;SDS011;9834;48.076;11.878;2023-02-28T11:57:52;9.53;;;7.27;;
19396;SDS011;9834;48.076;11.878;2023-02-28T12:00:49;7.97;;;7.13;;
19396;SDS011;9834;48.076;11.878;2023-02-28T12:03:38;10.10;;;7.80;;
19396;SDS011;9834;48.076;11.878;2023-02-28T12:06:17;9.00;;;6.20;;
19396;SDS011;9834;48.076;11.878;2023-02-28T12:08:57;9.00;;;6.93;;
19396;SDS011;9834;48.076;11.878;2023-02-28T12:11:45;9.33;;;7.73;;
19396;SDS011;9834;48.076;11.878;2023-02-28T12:14:25;8.50;;;7.70;;
19396;SDS011;9834;48.076;11.878;2023-02-28T12:17:16;14.30;;;8.70;;
19396;SDS011;9834;48.076;11.878;2023-02-28T12:19:53;12.30;;;7.70;;
19396;SDS011;9834;48.076;11.878;2023-02-28T12:22:30;10.00;;;7.60;;
19396;SDS011;9834;48.076;11.878;2023-02-28T12:25:18;8.83;;;7.17;;
19396;SDS011;9834;48.076;11.878;2023-02-28T12:28:03;10.10;;;8.07;;
19396;SDS011;9834;48.076;11.878;2023-02-28T12:30:35;9.70;;;7.40;;
19396;SDS011;9834;48.076;11.878;2023-02-28T12:33:08;14.80;;;8.70;;
19396;SDS011;9834;48.076;11.878;2023-02-28T12:35:40;11.17;;;6.70;;
19396;SDS011;9834;48.076;11.878;2023-02-28T12:38:15;7.80;;;6.90;;
19396;SDS011;9834;48.076;11.878;2023-02-28T12:40:47;8.40;;;6.97;;
19396;SDS011;9834;48.076;11.878;2023-02-28T12:43:19;10.73;;;7.60;;
19396;SDS011;9834;48.076;11.878;2023-02-28T12:45:50;13.57;;;8.10;;
19396;SDS011;9834;48.076;11.878;2023-02-28T12:48:21;14.13;;;7.10;;
19396;SDS011;9834;48.076;11.878;2023-02-28T12:50:53;9.77;;;6.67;;
19396;SDS011;9834;48.076;11.878;2023-02-28T12:53:23;7.97;;;7.17;;
19396;SDS011;9834;48.076;11.878;2023-02-28T12:55:59;7.80;;;6.37;;
19396;SDS011;9834;48.076;11.878;2023-02-28T12:58:36;9.43;;;6.53;;
19396;SDS011;9834;48.076;11.878;2023-02-28T13:01:13;8.40;;;6.37;;
19396;SDS011;9834;48.076;11.878;2023-02-28T13:07:09;8.97;;;6.83;;
19396;SDS011;9834;48.076;11.878;2023-02-28T13:09:52;6.93;;;5.57;;
19396;SDS011;9834;48.076;11.878;2023-02-28T13:12:22;9.73;;;6.67;;
19396;SDS011;9834;48.076;11.878;2023-02-28T13:14:49;10.77;;;7.43;;
19396;SDS011;9834;48.076;11.878;2023-02-28T13:17:25;7.17;;;6.40;;
19396;SDS011;9834;48.076;11.878;2023-02-28T13:19:56;6.10;;;5.47;;
19396;SDS011;9834;48.076;11.878;2023-02-28T13:22:38;5.73;;;5.23;;
19396;SDS011;9834;48.076;11.878;2023-02-28T13:31:34;7.57;;;5.20;;
19396;SDS011;9834;48.076;11.878;2023-02-28T13:34:41;10.87;;;6.73;;
19396;SDS011;9834;48.076;11.878;2023-02-28T13:37:35;5.80;;;5.20;;
19396;SDS011;9834;48.076;11.878;2023-02-28T13:43:02;4.90;;;4.40;;
19396;SDS011;9834;48.076;11.878;2023-02-28T13:45:33;4.77;;;4.37;;
19396;SDS011;9834;48.076;11.878;2023-02-28T13:48:13;7.37;;;5.27;;
19396;SDS011;9834;48.076;11.878;2023-02-28T13:50:44;7.47;;;5.50;;
19396;SDS011;9834;48.076;11.878;2023-02-28T13:53:26;6.27;;;5.70;;
19396;SDS011;9834;48.076;11.878;2023-02-28T13:56:24;5.70;;;5.10;;
19396;SDS011;9834;48.076;11.878;2023-02-28T13:58:59;8.37;;;6.10;;
19396;SDS011;9834;48.076;11.878;2023-02-28T14:01:45;5.37;;;4.87;;
19396;SDS011;9834;48.076;11.878;2023-02-28T14:07:17;8.97;;;6.20;;
19396;SDS011;9834;48.076;11.878;2023-02-28T14:09:50;6.53;;;5.93;;
19396;SDS011;9834;48.076;11.878;2023-02-28T14:18:19;8.07;;;6.13;;
19396;SDS011;9834;48.076;11.878;2023-02-28T14:20:52;6.73;;;5.13;;
19396;SDS011;9834;48.076;11.878;2023-02-28T14:23:39;5.77;;;5.13;;
19396;SDS011;9834;48.076;11.878;2023-02-28T14:29:26;6.63;;;4.47;;
19396;SDS011;9834;48.076;11.878;2023-02-28T14:32:10;6.33;;;5.43;;
19396;SDS011;9834;48.076;11.878;2023-02-28T14:34:47;5.87;;;4.87;;
19396;SDS011;9834;48.076;11.878;2023-02-28T14:37:23;8.57;;;5.80;;
19396;SDS011;9834;48.076;11.878;2023-02-28T14:39:55;7.17;;;5.50;;
19396;SDS011;9834;48.076;11.878;2023-02-28T14:42:30;9.10;;;6.53;;
19396;SDS011;9834;48.076;11.878;2023-02-28T14:44:59;11.20;;;5.40;;
19396;SDS011;9834;48.076;11.878;2023-02-28T14:47:28;7.67;;;6.47;;
19396;SDS011;9834;48.076;11.878;2023-02-28T14:49:59;5.60;;;5.00;;
19396;SDS011;9834;48.076;11.878;2023-02-28T14:52:31;6.00;;;4.83;;
19396;SDS011;9834;48.076;11.878;2023-02-28T14:55:00;8.27;;;4.87;;
19396;SDS011;9834;48.076;11.878;2023-02-28T14:57:30;11.90;;;5.67;;
19396;SDS011;9834;48.076;11.878;2023-02-28T14:59:59;7.63;;;5.20;;
19396;SDS011;9834;48.076;11.878;2023-02-28T15:02:35;4.73;;;4.20;;
19396;SDS011;9834;48.076;11.878;2023-02-28T15:05:14;7.90;;;5.27;;
19396;SDS011;9834;48.076;11.878;2023-02-28T15:07:59;7.43;;;5.17;;
19396;SDS011;9834;48.076;11.878;2023-02-28T15:10:29;6.57;;;4.33;;
19396;SDS011;9834;48.076;11.878;2023-02-28T15:12:58;4.60;;;4.20;;
19396;SDS011;9834;48.076;11.878;2023-02-28T15:15:35;6.10;;;4.20;;
19396;SDS011;9834;48.076;11.878;2023-02-28T15:18:10;5.93;;;4.70;;
19396;SDS011;9834;48.076;11.878;2023-02-28T15:20:48;5.70;;;4.37;;
19396;SDS011;9834;48.076;11.878;2023-02-28T15:23:18;5.97;;;5.03;;
19396;SDS011;9834;48.076;11.878;2023-02-28T15:25:47;5.80;;;4.33;;
19396;SDS011;9834;48.076;11.878;2023-02-28T15:28:17;5.70;;;5.07;;
19396;SDS011;9834;48.076;11.878;2023-02-28T15:30:51;5.50;;;4.87;;
19396;SDS011;9834;48.076;11.878;2023-02-28T15:33:20;5.33;;;4.43;;
19396;SDS011;9834;48.076;11.878;2023-02-28T15:35:49;9.83;;;5.50;;
19396;SDS011;9834;48.076;11.878;2023-02-28T15:38:21;5.53;;;4.23;;
19396;SDS011;9834;48.076;11.878;2023-02-28T15:40:50;5.97;;;5.13;;
19396;SDS011;9834;48.076;11.878;2023-02-28T15:43:25;6.57;;;5.63;;
19396;SDS011;9834;48.076;11.878;2023-02-28T15:45:55;6.50;;;5.20;;